sensor_id;sensor_type;location;lat;lon;timestamp;pressure;altitude;pressure_sealevel;temperature;humidity
42601;BME280;28229;48.856;9.088;2023-04-16T00:01:28;97861.47;;;6.54;100.00
42601;BME280;28229;48.856;9.088;2023-04-16T00:03:54;97857.06;;;6.54;100.00
42601;BME280;28229;48.856;9.088;2023-04-16T00:06:21;97854.66;;;6.53;100.00
42601;BME280;28229;48.856;9.088;2023-04-16T00:08:48;97849.25;;;6.54;100.00
42601;BME280;28229;48.856;9.088;2023-04-16T00:11:14;97863.72;;;6.57;100.00
42601;BME280;28229;48.856;9.088;2023-04-16T00:13:40;97862.72;;;6.58;100.00
42601;BME280;28229;48.856;9.088;2023-04-16T00:16:07;97860.13;;;6.58;100.00
42601;BME280;28229;48.856;9.088;2023-04-16T00:18:33;97865.72;;;6.55;100.00
42601;BME280;28229;48.856;9.088;2023-04-16T00:20:59;97861.09;;;6.57;100.00
42601;BME280;28229;48.856;9.088;2023-04-16T00:23:25;97867.97;;;6.58;100.00
42601;BME280;28229;48.856;9.088;2023-04-16T00:25:51;97865.94;;;6.60;100.00
42601;BME280;28229;48.856;9.088;2023-04-16T00:28:18;97875.78;;;6.58;100.00
42601;BME280;28229;48.856;9.088;2023-04-16T00:30:45;97873.19;;;6.58;100.00
42601;BME280;28229;48.856;9.088;2023-04-16T00:33:11;97869.94;;;6.56;100.00
42601;BME280;28229;48.856;9.088;2023-04-16T00:35:37;97865.72;;;6.55;100.00
42601;BME280;28229;48.856;9.088;2023-04-16T00:38:04;97863.53;;;6.58;100.00
42601;BME280;28229;48.856;9.088;2023-04-16T00:40:30;97867.53;;;6.61;100.00
42601;BME280;28229;48.856;9.088;2023-04-16T00:42:56;97874.16;;;6.57;100.00
42601;BME280;28229;48.856;9.088;2023-04-16T00:45:23;97876.41;;;6.60;100.00
42601;BME280;28229;48.856;9.088;2023-04-16T00:47:49;97868.56;;;6.60;100.00
42601;BME280;28229;48.856;9.088;2023-04-16T00:50:16;97875.56;;;6.59;100.00
42601;BME280;28229;48.856;9.088;2023-04-16T00:52:45;97870.56;;;6.58;100.00
42601;BME280;28229;48.856;9.088;2023-04-16T00:55:11;97871.38;;;6.58;100.00
42601;BME280;28229;48.856;9.088;2023-04-16T00:57:38;97871.56;;;6.57;100.00
42601;BME280;28229;48.856;9.088;2023-04-16T01:00:05;97872.16;;;6.59;100.00
42601;BME280;28229;48.856;9.088;2023-04-16T01:02:32;97875.97;;;6.56;100.00
42601;BME280;28229;48.856;9.088;2023-04-16T01:05:00;97865.72;;;6.55;100.00
42601;BME280;28229;48.856;9.088;2023-04-16T01:07:26;97879.97;;;6.52;100.00
42601;BME280;28229;48.856;9.088;2023-04-16T01:09:52;97875.16;;;6.56;100.00
42601;BME280;28229;48.856;9.088;2023-04-16T01:12:18;97880.38;;;6.56;100.00
42601;BME280;28229;48.856;9.088;2023-04-16T01:14:45;97875.78;;;6.58;100.00
42601;BME280;28229;48.856;9.088;2023-04-16T01:17:11;97879.03;;;6.60;100.00
42601;BME280;28229;48.856;9.088;2023-04-16T01:19:37;97882.00;;;6.57;100.00
42601;BME280;28229;48.856;9.088;2023-04-16T01:22:04;97883.00;;;6.56;100.00
42601;BME280;28229;48.856;9.088;2023-04-16T01:24:31;97887.06;;;6.58;100.00
42601;BME280;28229;48.856;9.088;2023-04-16T01:27:10;97880.63;;;6.61;100.00
42601;BME280;28229;48.856;9.088;2023-04-16T01:29:38;97874.78;;;6.59;100.00
42601;BME280;28229;48.856;9.088;2023-04-16T01:32:05;97875.56;;;6.59;100.00
42601;BME280;28229;48.856;9.088;2023-04-16T01:34:33;97883.22;;;6.61;100.00
42601;BME280;28229;48.856;9.088;2023-04-16T01:36:59;97880.63;;;6.61;100.00
42601;BME280;28229;48.856;9.088;2023-04-16T01:39:26;97891.25;;;6.59;100.00
42601;BME280;28229;48.856;9.088;2023-04-16T01:41:52;97892.47;;;6.57;100.00
42601;BME280;28229;48.856;9.088;2023-04-16T01:44:19;97895.69;;;6.59;100.00
42601;BME280;28229;48.856;9.088;2023-04-16T01:46:46;97898.91;;;6.61;100.00
42601;BME280;28229;48.856;9.088;2023-04-16T01:49:12;97893.69;;;6.61;100.00
42601;BME280;28229;48.856;9.088;2023-04-16T01:51:38;97892.09;;;6.60;100.00
42601;BME280;28229;48.856;9.088;2023-04-16T01:54:05;97886.84;;;6.60;100.00
42601;BME280;28229;48.856;9.088;2023-04-16T01:56:31;97902.53;;;6.60;100.00
42601;BME280;28229;48.856;9.088;2023-04-16T01:58:57;97894.09;;;6.58;100.00
42601;BME280;28229;48.856;9.088;2023-04-16T02:01:26;97890.84;;;6.56;100.00
42601;BME280;28229;48.856;9.088;2023-04-16T02:03:52;97898.91;;;6.61;100.00
42601;BME280;28229;48.856;9.088;2023-04-16T02:06:19;97892.88;;;6.60;100.00
42601;BME280;28229;48.856;9.088;2023-04-16T02:08:46;97889.28;;;6.61;100.00
42601;BME280;28229;48.856;9.088;2023-04-16T02:11:14;97891.66;;;6.56;100.00
42601;BME280;28229;48.856;9.088;2023-04-16T02:13:41;97897.50;;;6.58;100.00
42601;BME280;28229;48.856;9.088;2023-04-16T02:16:07;97904.53;;;6.58;100.00
42601;BME280;28229;48.856;9.088;2023-04-16T02:18:46;97899.09;;;6.59;100.00
42601;BME280;28229;48.856;9.088;2023-04-16T02:21:14;97901.94;;;6.58;100.00
42601;BME280;28229;48.856;9.088;2023-04-16T02:23:40;97898.69;;;6.56;100.00
42601;BME280;28229;48.856;9.088;2023-04-16T02:26:07;97899.69;;;6.55;100.00
42601;BME280;28229;48.856;9.088;2023-04-16T02:28:33;97904.31;;;6.53;100.00
42601;BME280;28229;48.856;9.088;2023-04-16T02:30:59;97901.09;;;6.57;100.00
42601;BME280;28229;48.856;9.088;2023-04-16T02:33:29;97898.91;;;6.54;100.00
42601;BME280;28229;48.856;9.088;2023-04-16T02:36:00;97896.47;;;6.53;100.00
42601;BME280;28229;48.856;9.088;2023-04-16T02:38:26;97899.88;;;6.53;100.00
42601;BME280;28229;48.856;9.088;2023-04-16T02:40:53;97899.69;;;6.55;100.00
42601;BME280;28229;48.856;9.088;2023-04-16T02:43:19;97896.06;;;6.56;100.00
42601;BME280;28229;48.856;9.088;2023-04-16T02:45:45;97901.50;;;6.54;100.00
42601;BME280;28229;48.856;9.088;2023-04-16T02:48:12;97899.09;;;6.53;100.00
42601;BME280;28229;48.856;9.088;2023-04-16T02:50:38;97897.69;;;6.57;100.00
42601;BME280;28229;48.856;9.088;2023-04-16T02:53:04;97902.72;;;6.58;100.00
42601;BME280;28229;48.856;9.088;2023-04-16T02:55:32;97906.94;;;6.59;100.00
42601;BME280;28229;48.856;9.088;2023-04-16T02:57:58;97907.16;;;6.58;100.00
42601;BME280;28229;48.856;9.088;2023-04-16T03:00:25;97902.31;;;6.55;100.00
42601;BME280;28229;48.856;9.088;2023-04-16T03:02:51;97907.13;;;6.51;100.00
42601;BME280;28229;48.856;9.088;2023-04-16T03:05:17;97915.94;;;6.50;100.00
42601;BME280;28229;48.856;9.088;2023-04-16T03:07:44;97908.94;;;6.51;100.00
42601;BME280;28229;48.856;9.088;2023-04-16T03:10:10;97913.31;;;6.50;100.00
42601;BME280;28229;48.856;9.088;2023-04-16T03:12:37;97917.38;;;6.53;100.00
42601;BME280;28229;48.856;9.088;2023-04-16T03:15:06;97918.75;;;6.48;100.00
42601;BME280;28229;48.856;9.088;2023-04-16T03:17:32;97920.97;;;6.52;100.00
42601;BME280;28229;48.856;9.088;2023-04-16T03:19:58;97916.13;;;6.48;100.00
42601;BME280;28229;48.856;9.088;2023-04-16T03:22:25;97925.22;;;6.53;100.00
42601;BME280;28229;48.856;9.088;2023-04-16T03:24:52;97919.16;;;6.52;100.00
42601;BME280;28229;48.856;9.088;2023-04-16T03:27:18;97920.38;;;6.50;100.00
42601;BME280;28229;48.856;9.088;2023-04-16T03:29:45;97914.53;;;6.47;100.00
42601;BME280;28229;48.856;9.088;2023-04-16T03:32:11;97924.16;;;6.47;100.00
42601;BME280;28229;48.856;9.088;2023-04-16T03:34:37;97926.75;;;6.47;100.00
42601;BME280;28229;48.856;9.088;2023-04-16T03:37:04;97929.19;;;6.48;100.00
42601;BME280;28229;48.856;9.088;2023-04-16T03:39:32;97928.41;;;6.48;100.00
42601;BME280;28229;48.856;9.088;2023-04-16T03:41:58;97932.81;;;6.47;100.00
42601;BME280;28229;48.856;9.088;2023-04-16T03:44:27;97931.81;;;6.48;100.00
42601;BME280;28229;48.856;9.088;2023-04-16T03:46:53;97928.78;;;6.45;100.00
42601;BME280;28229;48.856;9.088;2023-04-16T03:49:19;97935.44;;;6.47;100.00
42601;BME280;28229;48.856;9.088;2023-04-16T03:51:45;97938.22;;;6.46;100.00
42601;BME280;28229;48.856;9.088;2023-04-16T03:54:12;97935.81;;;6.44;100.00
42601;BME280;28229;48.856;9.088;2023-04-16T03:56:41;97938.41;;;6.44;100.00
42601;BME280;28229;48.856;9.088;2023-04-16T03:59:08;97941.03;;;6.44;100.00
42601;BME280;28229;48.856;9.088;2023-04-16T04:01:34;97939.41;;;6.43;100.00
42601;BME280;28229;48.856;9.088;2023-04-16T04:04:02;97929.72;;;6.37;100.00
42601;BME280;28229;48.856;9.088;2023-04-16T04:06:28;97943.03;;;6.42;100.00
42601;BME280;28229;48.856;9.088;2023-04-16T04:08:57;97936.19;;;6.41;100.00
42601;BME280;28229;48.856;9.088;2023-04-16T04:11:23;97932.59;;;6.42;100.00
42601;BME280;28229;48.856;9.088;2023-04-16T04:13:50;97930.53;;;6.38;100.00
42601;BME280;28229;48.856;9.088;2023-04-16T04:16:16;97932.16;;;6.39;100.00
42601;BME280;28229;48.856;9.088;2023-04-16T04:18:43;97943.03;;;6.42;100.00
42601;BME280;28229;48.856;9.088;2023-04-16T04:21:09;97948.25;;;6.42;100.00
42601;BME280;28229;48.856;9.088;2023-04-16T04:23:35;97942.25;;;6.42;100.00
42601;BME280;28229;48.856;9.088;2023-04-16T04:26:02;97944.41;;;6.38;100.00
42601;BME280;28229;48.856;9.088;2023-04-16T04:28:31;97937.38;;;6.39;100.00
42601;BME280;28229;48.856;9.088;2023-04-16T04:30:58;97944.41;;;6.38;100.00
42601;BME280;28229;48.856;9.088;2023-04-16T04:33:25;97940.19;;;6.37;100.00
42601;BME280;28229;48.856;9.088;2023-04-16T04:35:52;97946.03;;;6.39;100.00
42601;BME280;28229;48.856;9.088;2023-04-16T04:38:19;97945.59;;;6.36;100.00
42601;BME280;28229;48.856;9.088;2023-04-16T04:40:48;97951.00;;;6.34;100.00
42601;BME280;28229;48.856;9.088;2023-04-16T04:43:18;97958.41;;;6.31;100.00
42601;BME280;28229;48.856;9.088;2023-04-16T04:45:45;97965.69;;;6.35;100.00
42601;BME280;28229;48.856;9.088;2023-04-16T04:48:11;97961.44;;;6.34;100.00
42601;BME280;28229;48.856;9.088;2023-04-16T04:50:38;97965.09;;;6.33;100.00
42601;BME280;28229;48.856;9.088;2023-04-16T04:53:07;97972.75;;;6.35;100.00
42601;BME280;28229;48.856;9.088;2023-04-16T04:55:38;97976.34;;;6.34;100.00
42601;BME280;28229;48.856;9.088;2023-04-16T04:58:05;97972.31;;;6.31;100.00
42601;BME280;28229;48.856;9.088;2023-04-16T05:00:33;97971.66;;;6.29;100.00
42601;BME280;28229;48.856;9.088;2023-04-16T05:03:09;97972.31;;;6.31;100.00
42601;BME280;28229;48.856;9.088;2023-04-16T05:05:37;97976.50;;;6.32;100.00
42601;BME280;28229;48.856;9.088;2023-04-16T05:08:03;97983.38;;;6.33;100.00
42601;BME280;28229;48.856;9.088;2023-04-16T05:10:30;97980.31;;;6.29;100.00
42601;BME280;28229;48.856;9.088;2023-04-16T05:12:56;97987.16;;;6.31;100.00
42601;BME280;28229;48.856;9.088;2023-04-16T05:15:22;97996.38;;;6.26;100.00
42601;BME280;28229;48.856;9.088;2023-04-16T05:17:48;97991.94;;;6.27;100.00
42601;BME280;28229;48.856;9.088;2023-04-16T05:20:14;97990.34;;;6.26;100.00
42601;BME280;28229;48.856;9.088;2023-04-16T05:22:40;98002.81;;;6.31;100.00
42601;BME280;28229;48.856;9.088;2023-04-16T05:25:07;98002.03;;;6.30;100.00
42601;BME280;28229;48.856;9.088;2023-04-16T05:27:33;98011.25;;;6.26;100.00
42601;BME280;28229;48.856;9.088;2023-04-16T05:29:59;98007.63;;;6.27;100.00
42601;BME280;28229;48.856;9.088;2023-04-16T05:32:26;98004.47;;;6.32;100.00
42601;BME280;28229;48.856;9.088;2023-04-16T05:34:52;98006.44;;;6.29;100.00
42601;BME280;28229;48.856;9.088;2023-04-16T05:37:19;98014.28;;;6.29;100.00
42601;BME280;28229;48.856;9.088;2023-04-16T05:39:47;98008.88;;;6.31;100.00
42601;BME280;28229;48.856;9.088;2023-04-16T05:42:13;98016.72;;;6.31;100.00
42601;BME280;28229;48.856;9.088;2023-04-16T05:44:40;98020.88;;;6.25;100.00
42601;BME280;28229;48.856;9.088;2023-04-16T05:47:06;98014.84;;;6.25;100.00
42601;BME280;28229;48.856;9.088;2023-04-16T05:49:35;98026.91;;;6.26;100.00
42601;BME280;28229;48.856;9.088;2023-04-16T05:52:03;98029.53;;;6.26;100.00
42601;BME280;28229;48.856;9.088;2023-04-16T05:54:29;98031.53;;;6.24;100.00
42601;BME280;28229;48.856;9.088;2023-04-16T05:56:55;98032.94;;;6.26;100.00
42601;BME280;28229;48.856;9.088;2023-04-16T05:59:21;98032.16;;;6.26;100.00
42601;BME280;28229;48.856;9.088;2023-04-16T06:01:47;98036.53;;;6.25;100.00
42601;BME280;28229;48.856;9.088;2023-04-16T06:04:13;98043.84;;;6.30;100.00
42601;BME280;28229;48.856;9.088;2023-04-16T06:06:40;98037.41;;;6.33;100.00
42601;BME280;28229;48.856;9.088;2023-04-16T06:09:06;98043.84;;;6.30;100.00
42601;BME280;28229;48.856;9.088;2023-04-16T06:11:32;98033.19;;;6.32;100.00
42601;BME280;28229;48.856;9.088;2023-04-16T06:13:58;98041.03;;;6.32;100.00
42601;BME280;28229;48.856;9.088;2023-04-16T06:16:24;98048.69;;;6.33;100.00
42601;BME280;28229;48.856;9.088;2023-04-16T06:18:51;98042.19;;;6.29;100.00
42601;BME280;28229;48.856;9.088;2023-04-16T06:21:17;98040.41;;;6.29;100.00
42601;BME280;28229;48.856;9.088;2023-04-16T06:23:43;98044.44;;;6.32;100.00
42601;BME280;28229;48.856;9.088;2023-04-16T06:26:10;98045.06;;;6.34;100.00
42601;BME280;28229;48.856;9.088;2023-04-16T06:28:36;98041.28;;;6.37;100.00
42601;BME280;28229;48.856;9.088;2023-04-16T06:31:03;98046.34;;;6.38;100.00
42601;BME280;28229;48.856;9.088;2023-04-16T06:33:29;98046.34;;;6.38;100.00
42601;BME280;28229;48.856;9.088;2023-04-16T06:35:55;98043.72;;;6.38;100.00
42601;BME280;28229;48.856;9.088;2023-04-16T06:38:21;98045.94;;;6.41;100.00
42601;BME280;28229;48.856;9.088;2023-04-16T06:40:47;98047.56;;;6.42;100.00
42601;BME280;28229;48.856;9.088;2023-04-16T06:43:15;98051.16;;;6.41;100.00
42601;BME280;28229;48.856;9.088;2023-04-16T06:45:43;98052.19;;;6.40;100.00
42601;BME280;28229;48.856;9.088;2023-04-16T06:48:09;98058.81;;;6.43;100.00
42601;BME280;28229;48.856;9.088;2023-04-16T06:50:36;98049.81;;;6.45;100.00
42601;BME280;28229;48.856;9.088;2023-04-16T06:53:02;98059.75;;;6.57;100.00
42601;BME280;28229;48.856;9.088;2023-04-16T06:55:28;98055.88;;;6.74;100.00
42601;BME280;28229;48.856;9.088;2023-04-16T06:57:54;98056.19;;;6.64;100.00
42601;BME280;28229;48.856;9.088;2023-04-16T07:00:21;98060.00;;;6.62;100.00
42601;BME280;28229;48.856;9.088;2023-04-16T07:02:47;98059.38;;;6.60;100.00
42601;BME280;28229;48.856;9.088;2023-04-16T07:05:13;98070.81;;;6.59;100.00
42601;BME280;28229;48.856;9.088;2023-04-16T07:07:39;98068.22;;;6.59;100.00
42601;BME280;28229;48.856;9.088;2023-04-16T07:10:25;98067.22;;;6.60;100.00
42601;BME280;28229;48.856;9.088;2023-04-16T07:12:52;98074.06;;;6.61;100.00
42601;BME280;28229;48.856;9.088;2023-04-16T07:15:18;98080.53;;;6.65;100.00
42601;BME280;28229;48.856;9.088;2023-04-16T07:17:44;98071.06;;;6.64;100.00
42601;BME280;28229;48.856;9.088;2023-04-16T07:20:10;98075.94;;;6.67;100.00
42601;BME280;28229;48.856;9.088;2023-04-16T07:22:36;98079.97;;;6.70;100.00
42601;BME280;28229;48.856;9.088;2023-04-16T07:25:03;98078.97;;;6.71;100.00
42601;BME280;28229;48.856;9.088;2023-04-16T07:27:29;98076.72;;;6.67;100.00
42601;BME280;28229;48.856;9.088;2023-04-16T07:29:55;98088.00;;;6.68;100.00
42601;BME280;28229;48.856;9.088;2023-04-16T07:32:21;98076.38;;;6.71;100.00
42601;BME280;28229;48.856;9.088;2023-04-16T07:34:48;98081.16;;;6.67;100.00
42601;BME280;28229;48.856;9.088;2023-04-16T07:37:14;98084.63;;;6.74;100.00
42601;BME280;28229;48.856;9.088;2023-04-16T07:39:40;98088.41;;;6.72;100.00
42601;BME280;28229;48.856;9.088;2023-04-16T07:42:07;98091.22;;;6.70;100.00
42601;BME280;28229;48.856;9.088;2023-04-16T07:44:33;98096.09;;;6.73;100.00
42601;BME280;28229;48.856;9.088;2023-04-16T07:46:59;98088.47;;;6.78;100.00
42601;BME280;28229;48.856;9.088;2023-04-16T07:49:25;98096.94;;;6.80;100.00
42601;BME280;28229;48.856;9.088;2023-04-16T07:51:51;98094.94;;;6.82;100.00
42601;BME280;28229;48.856;9.088;2023-04-16T07:54:18;98096.56;;;6.83;100.00
42601;BME280;28229;48.856;9.088;2023-04-16T07:56:44;98093.34;;;6.81;100.00
42601;BME280;28229;48.856;9.088;2023-04-16T07:59:11;98101.38;;;6.80;100.00
42601;BME280;28229;48.856;9.088;2023-04-16T08:01:37;98103.81;;;6.81;100.00
42601;BME280;28229;48.856;9.088;2023-04-16T08:04:03;98100.22;;;6.89;100.00
42601;BME280;28229;48.856;9.088;2023-04-16T08:06:29;98109.56;;;6.98;100.00
42601;BME280;28229;48.856;9.088;2023-04-16T08:08:56;98112.75;;;6.94;100.00
42601;BME280;28229;48.856;9.088;2023-04-16T08:11:22;98113.94;;;6.91;100.00
42601;BME280;28229;48.856;9.088;2023-04-16T08:13:49;98110.88;;;6.88;100.00
42601;BME280;28229;48.856;9.088;2023-04-16T08:16:15;98119.56;;;6.88;100.00
42601;BME280;28229;48.856;9.088;2023-04-16T08:18:41;98121.16;;;6.89;100.00
42601;BME280;28229;48.856;9.088;2023-04-16T08:21:09;98125.16;;;6.85;100.00
42601;BME280;28229;48.856;9.088;2023-04-16T08:23:35;98128.56;;;6.85;100.00
42601;BME280;28229;48.856;9.088;2023-04-16T08:26:02;98123.34;;;6.85;100.00
42601;BME280;28229;48.856;9.088;2023-04-16T08:28:28;98130.38;;;6.85;100.00
42601;BME280;28229;48.856;9.088;2023-04-16T08:30:56;98135.25;;;6.88;100.00
42601;BME280;28229;48.856;9.088;2023-04-16T08:33:22;98135.63;;;6.85;100.00
42601;BME280;28229;48.856;9.088;2023-04-16T08:35:48;98136.06;;;6.89;100.00
42601;BME280;28229;48.856;9.088;2023-04-16T08:38:15;98139.91;;;6.93;100.00
42601;BME280;28229;48.856;9.088;2023-04-16T08:40:41;98137.91;;;6.95;100.00
42601;BME280;28229;48.856;9.088;2023-04-16T08:43:09;98150.16;;;6.94;100.00
42601;BME280;28229;48.856;9.088;2023-04-16T08:45:40;98144.94;;;6.94;100.00
42601;BME280;28229;48.856;9.088;2023-04-16T08:48:10;98145.75;;;6.95;100.00
42601;BME280;28229;48.856;9.088;2023-04-16T08:50:37;98154.59;;;6.94;100.00
42601;BME280;28229;48.856;9.088;2023-04-16T08:53:05;98147.38;;;6.96;100.00
42601;BME280;28229;48.856;9.088;2023-04-16T08:55:36;98155.84;;;6.98;100.00
42601;BME280;28229;48.856;9.088;2023-04-16T08:58:14;98152.78;;;6.94;100.00
42601;BME280;28229;48.856;9.088;2023-04-16T09:00:41;98160.69;;;7.01;100.00
42601;BME280;28229;48.856;9.088;2023-04-16T09:03:08;98155.91;;;7.04;100.00
42601;BME280;28229;48.856;9.088;2023-04-16T09:05:38;98160.31;;;7.04;100.00
42601;BME280;28229;48.856;9.088;2023-04-16T09:08:05;98155.94;;;7.11;100.00
42601;BME280;28229;48.856;9.088;2023-04-16T09:10:32;98158.00;;;7.16;100.00
42601;BME280;28229;48.856;9.088;2023-04-16T09:12:58;98164.28;;;7.21;100.00
42601;BME280;28229;48.856;9.088;2023-04-16T09:15:25;98161.66;;;7.21;100.00
42601;BME280;28229;48.856;9.088;2023-04-16T09:17:51;98166.09;;;7.21;100.00
42601;BME280;28229;48.856;9.088;2023-04-16T09:20:18;98166.88;;;7.21;100.00
42601;BME280;28229;48.856;9.088;2023-04-16T09:22:45;98166.50;;;7.24;100.00
42601;BME280;28229;48.856;9.088;2023-04-16T09:25:12;98168.56;;;7.29;100.00
42601;BME280;28229;48.856;9.088;2023-04-16T09:27:48;98170.00;;;7.32;100.00
42601;BME280;28229;48.856;9.088;2023-04-16T09:30:20;98169.22;;;7.38;100.00
42601;BME280;28229;48.856;9.088;2023-04-16T09:32:47;98161.75;;;7.35;100.00
42601;BME280;28229;48.856;9.088;2023-04-16T09:35:14;98177.06;;;7.38;100.00
42601;BME280;28229;48.856;9.088;2023-04-16T09:37:41;98176.69;;;7.41;100.00
42601;BME280;28229;48.856;9.088;2023-04-16T09:40:11;98181.94;;;7.41;100.00
42601;BME280;28229;48.856;9.088;2023-04-16T09:42:37;98177.94;;;7.45;100.00
42601;BME280;28229;48.856;9.088;2023-04-16T09:45:03;98177.13;;;7.44;100.00
42601;BME280;28229;48.856;9.088;2023-04-16T09:47:43;98176.31;;;7.44;100.00
42601;BME280;28229;48.856;9.088;2023-04-16T09:50:17;98179.94;;;7.43;100.00
42601;BME280;28229;48.856;9.088;2023-04-16T09:52:47;98186.41;;;7.47;100.00
42601;BME280;28229;48.856;9.088;2023-04-16T09:55:14;98189.66;;;7.49;100.00
42601;BME280;28229;48.856;9.088;2023-04-16T09:57:40;98186.38;;;7.40;100.00
42601;BME280;28229;48.856;9.088;2023-04-16T10:00:08;98183.94;;;7.39;100.00
42601;BME280;28229;48.856;9.088;2023-04-16T10:02:35;98194.78;;;7.36;100.00
42601;BME280;28229;48.856;9.088;2023-04-16T10:05:04;98196.03;;;7.40;100.00
42601;BME280;28229;48.856;9.088;2023-04-16T10:07:33;98197.03;;;7.39;100.00
42601;BME280;28229;48.856;9.088;2023-04-16T10:09:59;98199.25;;;7.42;100.00
42601;BME280;28229;48.856;9.088;2023-04-16T10:12:26;98198.91;;;7.45;100.00
42601;BME280;28229;48.856;9.088;2023-04-16T10:14:53;98195.25;;;7.46;100.00
42601;BME280;28229;48.856;9.088;2023-04-16T10:17:20;98203.34;;;7.51;100.00
42601;BME280;28229;48.856;9.088;2023-04-16T10:19:47;98202.75;;;7.49;100.00
42601;BME280;28229;48.856;9.088;2023-04-16T10:22:13;98208.59;;;7.51;100.00
42601;BME280;28229;48.856;9.088;2023-04-16T10:24:40;98211.59;;;7.48;100.00
42601;BME280;28229;48.856;9.088;2023-04-16T10:27:06;98212.59;;;7.47;100.00
42601;BME280;28229;48.856;9.088;2023-04-16T10:29:33;98211.59;;;7.48;100.00
42601;BME280;28229;48.856;9.088;2023-04-16T10:32:00;98210.16;;;7.46;100.00
42601;BME280;28229;48.856;9.088;2023-04-16T10:34:27;98216.44;;;7.51;100.00
42601;BME280;28229;48.856;9.088;2023-04-16T10:36:54;98207.00;;;7.57;100.00
42601;BME280;28229;48.856;9.088;2023-04-16T10:39:22;98221.91;;;7.56;100.00
42601;BME280;28229;48.856;9.088;2023-04-16T10:42:08;98210.47;;;7.64;100.00
42601;BME280;28229;48.856;9.088;2023-04-16T10:44:35;98212.34;;;7.70;100.00
42601;BME280;28229;48.856;9.088;2023-04-16T10:47:02;98222.84;;;7.77;100.00
42601;BME280;28229;48.856;9.088;2023-04-16T10:49:34;98215.63;;;7.79;100.00
42601;BME280;28229;48.856;9.088;2023-04-16T10:52:15;98216.00;;;7.76;100.00
42601;BME280;28229;48.856;9.088;2023-04-16T10:54:45;98212.78;;;7.74;100.00
42601;BME280;28229;48.856;9.088;2023-04-16T10:57:18;98215.41;;;7.74;100.00
42601;BME280;28229;48.856;9.088;2023-04-16T10:59:45;98209.97;;;7.75;100.00
42601;BME280;28229;48.856;9.088;2023-04-16T11:02:15;98217.38;;;7.72;100.00
42601;BME280;28229;48.856;9.088;2023-04-16T11:04:43;98209.34;;;7.73;100.00
42601;BME280;28229;48.856;9.088;2023-04-16T11:09:46;98215.97;;;7.69;100.00
42601;BME280;28229;48.856;9.088;2023-04-16T11:12:16;98215.16;;;7.69;100.00
42601;BME280;28229;48.856;9.088;2023-04-16T11:14:48;98221.19;;;7.69;100.00
42601;BME280;28229;48.856;9.088;2023-04-16T11:17:16;98218.53;;;7.62;100.00
42601;BME280;28229;48.856;9.088;2023-04-16T11:19:42;98226.38;;;7.62;100.00
42601;BME280;28229;48.856;9.088;2023-04-16T11:22:11;98221.16;;;7.62;100.00
42601;BME280;28229;48.856;9.088;2023-04-16T11:24:38;98225.59;;;7.62;100.00
42601;BME280;28229;48.856;9.088;2023-04-16T11:27:06;98226.38;;;7.62;100.00
42601;BME280;28229;48.856;9.088;2023-04-16T11:29:33;98221.56;;;7.66;100.00
42601;BME280;28229;48.856;9.088;2023-04-16T11:31:59;98225.81;;;7.67;100.00
42601;BME280;28229;48.856;9.088;2023-04-16T11:34:26;98223.75;;;7.62;100.00
42601;BME280;28229;48.856;9.088;2023-04-16T11:36:52;98232.22;;;7.58;100.00
42601;BME280;28229;48.856;9.088;2023-04-16T11:39:18;98228.00;;;7.63;100.00
42601;BME280;28229;48.856;9.088;2023-04-16T11:41:48;98224.78;;;7.61;100.00
42601;BME280;28229;48.856;9.088;2023-04-16T11:44:22;98228.00;;;7.63;100.00
42601;BME280;28229;48.856;9.088;2023-04-16T11:46:50;98221.75;;;7.58;100.00
42601;BME280;28229;48.856;9.088;2023-04-16T11:49:25;98228.19;;;7.62;100.00
42601;BME280;28229;48.856;9.088;2023-04-16T11:51:54;98228.00;;;7.63;100.00
42601;BME280;28229;48.856;9.088;2023-04-16T11:54:22;98227.59;;;7.60;100.00
42601;BME280;28229;48.856;9.088;2023-04-16T11:56:50;98228.56;;;7.59;100.00
42601;BME280;28229;48.856;9.088;2023-04-16T11:59:22;98222.53;;;7.58;100.00
42601;BME280;28229;48.856;9.088;2023-04-16T12:01:52;98231.63;;;7.62;100.00
42601;BME280;28229;48.856;9.088;2023-04-16T12:04:22;98235.25;;;7.61;100.00
42601;BME280;28229;48.856;9.088;2023-04-16T12:09:38;98232.88;;;7.67;100.00
42601;BME280;28229;48.856;9.088;2023-04-16T12:12:05;98227.00;;;7.65;100.00
42601;BME280;28229;48.856;9.088;2023-04-16T12:14:31;98230.03;;;7.61;100.00
42601;BME280;28229;48.856;9.088;2023-04-16T12:17:18;98235.25;;;7.61;100.00
42601;BME280;28229;48.856;9.088;2023-04-16T12:19:56;98226.78;;;7.59;100.00
42601;BME280;28229;48.856;9.088;2023-04-16T12:22:30;98235.81;;;7.57;100.00
42601;BME280;28229;48.856;9.088;2023-04-16T12:25:03;98234.41;;;7.54;100.00
42601;BME280;28229;48.856;9.088;2023-04-16T12:27:46;98238.63;;;7.55;100.00
42601;BME280;28229;48.856;9.088;2023-04-16T12:30:14;98235.63;;;7.58;100.00
42601;BME280;28229;48.856;9.088;2023-04-16T12:32:42;98245.50;;;7.56;100.00
42601;BME280;28229;48.856;9.088;2023-04-16T12:35:09;98246.34;;;7.63;100.00
42601;BME280;28229;48.856;9.088;2023-04-16T12:37:36;98245.97;;;7.67;100.00
42601;BME280;28229;48.856;9.088;2023-04-16T12:40:03;98248.81;;;7.72;100.00
42601;BME280;28229;48.856;9.088;2023-04-16T12:42:30;98246.81;;;7.74;100.00
42601;BME280;28229;48.856;9.088;2023-04-16T12:45:02;98243.44;;;7.80;100.00
42601;BME280;28229;48.856;9.088;2023-04-16T12:47:29;98242.44;;;7.81;100.00
42601;BME280;28229;48.856;9.088;2023-04-16T12:49:56;98240.25;;;7.85;100.00
42601;BME280;28229;48.856;9.088;2023-04-16T12:52:25;98246.91;;;7.87;100.00
42601;BME280;28229;48.856;9.088;2023-04-16T12:54:51;98248.47;;;7.81;100.00
42601;BME280;28229;48.856;9.088;2023-04-16T12:57:18;98242.69;;;7.86;100.00
42601;BME280;28229;48.856;9.088;2023-04-16T12:59:44;98251.53;;;7.85;100.00
42601;BME280;28229;48.856;9.088;2023-04-16T13:02:12;98247.69;;;7.81;100.00
42601;BME280;28229;48.856;9.088;2023-04-16T13:04:38;98244.88;;;7.82;100.00
42601;BME280;28229;48.856;9.088;2023-04-16T13:07:04;98234.19;;;7.84;100.00